Map

Track Data

SID SEASON NUMBER BASIN SUBBASIN NAME ISO_TIME NATURE LAT LON WMO_WIND WMO_PRES WMO_AGENCY TRACK_TYPE DIST2LAND LANDFALL IFLAG USA_AGENCY USA_ATCF_ID USA_LAT USA_LON USA_RECORD USA_STATUS USA_WIND USA_PRES USA_SSHS USA_R34_NE USA_R34_SE USA_R34_SW USA_R34_NW USA_R50_NE USA_R50_SE USA_R50_SW USA_R50_NW USA_R64_NE USA_R64_SE USA_R64_SW USA_R64_NW USA_POCI USA_ROCI USA_RMW USA_EYE TOKYO_LAT TOKYO_LON TOKYO_GRADE TOKYO_WIND TOKYO_PRES TOKYO_R50_DIR TOKYO_R50_LONG TOKYO_R50_SHORT TOKYO_R30_DIR TOKYO_R30_LONG TOKYO_R30_SHORT TOKYO_LAND CMA_LAT CMA_LON CMA_CAT CMA_WIND CMA_PRES HKO_LAT HKO_LON HKO_CAT HKO_WIND HKO_PRES NEWDELHI_LAT NEWDELHI_LON NEWDELHI_GRADE NEWDELHI_WIND NEWDELHI_PRES NEWDELHI_CI NEWDELHI_DP NEWDELHI_POCI REUNION_LAT REUNION_LON REUNION_TYPE REUNION_WIND REUNION_PRES REUNION_TNUM REUNION_CI REUNION_RMW REUNION_R34_NE REUNION_R34_SE REUNION_R34_SW REUNION_R34_NW REUNION_R50_NE REUNION_R50_SE REUNION_R50_SW REUNION_R50_NW REUNION_R64_NE REUNION_R64_SE REUNION_R64_SW REUNION_R64_NW BOM_LAT BOM_LON BOM_TYPE BOM_WIND BOM_PRES BOM_TNUM BOM_CI BOM_RMW BOM_R34_NE BOM_R34_SE BOM_R34_SW BOM_R34_NW BOM_R50_NE BOM_R50_SE BOM_R50_SW BOM_R50_NW BOM_R64_NE BOM_R64_SE BOM_R64_SW BOM_R64_NW BOM_ROCI BOM_POCI BOM_EYE BOM_POS_METHOD BOM_PRES_METHOD NADI_LAT NADI_LON NADI_CAT NADI_WIND NADI_PRES WELLINGTON_LAT WELLINGTON_LON WELLINGTON_WIND WELLINGTON_PRES DS824_LAT DS824_LON DS824_STAGE DS824_WIND DS824_PRES TD9636_LAT TD9636_LON TD9636_STAGE TD9636_WIND TD9636_PRES TD9635_LAT TD9635_LON TD9635_WIND TD9635_PRES TD9635_ROCI NEUMANN_LAT NEUMANN_LON NEUMANN_CLASS NEUMANN_WIND NEUMANN_PRES MLC_LAT MLC_LON MLC_CLASS MLC_WIND MLC_PRES USA_GUST BOM_GUST BOM_GUST_PER REUNION_GUST REUNION_GUST_PER USA_SEAHGT USA_SEARAD_NE USA_SEARAD_SE USA_SEARAD_SW USA_SEARAD_NW STORM_SPEED STORM_DIR
1952260N18252 1952 68 EP MM NOT_NAMED 1952-09-15 12:00:00 TS 17.6000 -108.100 75 hurdat_epa main 377 377 O________OO___ hurdat_epa EP051952 17.6000 -108.100 HU 75 1 17.6000 -108.100 TC 75 17.6000 -108.100 4 15 308
1952260N18252 1952 68 EP MM NOT_NAMED 1952-09-15 15:00:00 TS 18.0594 -108.712 main 397 397 P________PP___ EP051952 18.0680 -108.724 HU 75 1 18.0680 -108.724 TC 75 18.0250 -108.665 4 14 308
1952260N18252 1952 68 EP MM NOT_NAMED 1952-09-15 18:00:00 TS 18.4879 -109.283 75 hurdat_epa main 432 432 O________OP___ hurdat_epa EP051952 18.5000 -109.300 HU 75 1 18.5000 -109.300 TC 75 18.4393 -109.215 4 13 309
1952260N18252 1952 68 EP MM NOT_NAMED 1952-09-15 21:00:00 TS 18.8646 -109.777 main 447 414 P________PP___ EP051952 18.8723 -109.788 HU 75 1 18.8723 -109.788 TC 75 18.8338 -109.733 4 11 309
1952260N18252 1952 68 EP MM NOT_NAMED 1952-09-16 00:00:00 TS 19.2000 -110.200 75 hurdat_epa main 414 383 O________OO___ hurdat_epa EP051952 19.2000 -110.200 HU 75 1 19.2000 -110.200 TC 75 19.2000 -110.200 4 10 311
1952260N18252 1952 68 EP MM NOT_NAMED 1952-09-16 03:00:00 TS 19.5123 -110.579 main 385 358 P________PP___ EP051952 19.5074 -110.573 HU 75 1 19.5074 -110.573 TC 75 19.5322 -110.604 4 9 312
1952260N18252 1952 68 EP MM NOT_NAMED 1952-09-16 06:00:00 TS 19.8074 -110.910 75 hurdat_epa main 358 336 O________OP___ hurdat_epa EP051952 19.8000 -110.900 HU 75 1 19.8000 -110.900 TC 75 19.8368 -110.949 4 9 314
1952260N18252 1952 68 EP MM NOT_NAMED 1952-09-16 09:00:00 TS 20.1046 -111.227 main 336 319 P________PP___ EP051952 20.1000 -111.223 HU 75 1 20.1000 -111.223 TC 75 20.1230 -111.244 4 8 317
1952260N18252 1952 68 EP MM NOT_NAMED 1952-09-16 12:00:00 TS 20.4000 -111.500 75 hurdat_epa main 319 302 O________OO___ hurdat_epa EP051952 20.4000 -111.500 HU 75 1 20.4000 -111.500 TC 75 20.4000 -111.500 4 8 323
1952260N18252 1952 68 EP MM NOT_NAMED 1952-09-16 15:00:00 TS 20.7071 -111.715 main 302 288 P________PP___ EP051952 20.7074 -111.715 HU 75 1 20.7074 -111.715 TC 75 20.7060 -111.716 4 7 328
1952260N18252 1952 68 EP MM NOT_NAMED 1952-09-16 18:00:00 TS 21.0004 -111.900 75 hurdat_epa main 288 280 O________OP___ hurdat_epa EP051952 21.0000 -111.900 HU 75 1 21.0000 -111.900 TC 75 21.0018 -111.901 4 7 329
1952260N18252 1952 68 EP MM NOT_NAMED 1952-09-16 21:00:00 TS 21.2723 -112.085 main 280 275 P________PP___ EP051952 21.2724 -112.085 HU 75 1 21.2724 -112.085 TC 75 21.2716 -112.085 4 6 323
1952260N18252 1952 68 EP MM NOT_NAMED 1952-09-17 00:00:00 TS 21.5000 -112.300 75 hurdat_epa main 283 283 O________OO___ hurdat_epa EP051952 21.5000 -112.300 HU 75 1 21.5000 -112.300 TC 75 21.5000 -112.300 4 6 311
1952260N18252 1952 68 EP MM NOT_NAMED 1952-09-17 03:00:00 TS 21.6716 -112.581 main 299 299 P________PP___ EP051952 21.6725 -112.578 HU 75 1 21.6725 -112.578 TC 75 21.6683 -112.593 4 6 298
1952260N18252 1952 68 EP MM NOT_NAMED 1952-09-17 06:00:00 TS 21.7990 -112.904 75 hurdat_epa main 316 316 O________OP___ hurdat_epa EP051952 21.8000 -112.900 HU 75 1 21.8000 -112.900 TC 75 21.7952 -112.920 4 7 291
1952260N18252 1952 68 EP MM NOT_NAMED 1952-09-17 09:00:00 TS 21.9059 -113.252 main 328 323 P________PP___ EP051952 21.9075 -113.250 HU 75 1 21.9075 -113.250 TC 75 21.8995 -113.262 4 7 287
1952260N18252 1952 68 EP MM NOT_NAMED 1952-09-17 12:00:00 TS 22.0000 -113.600 75 hurdat_epa main 334 334 O________OO___ hurdat_epa EP051952 22.0000 -113.600 HU 75 1 22.0000 -113.600 TC 75 22.0000 -113.600 4 6 288
1952260N18252 1952 68 EP MM NOT_NAMED 1952-09-17 15:00:00 TS 22.0988 -113.905 main 343 343 P________PP___ EP051952 22.0924 -113.908 HU 75 1 22.0924 -113.908 TC 75 22.1246 -113.895 4 6 291
1952260N18252 1952 68 EP MM NOT_NAMED 1952-09-17 18:00:00 TS 22.2099 -114.197 75 hurdat_epa main 352 349 O________OP___ hurdat_epa EP051952 22.2000 -114.200 HU 75 1 22.2000 -114.200 TC 75 22.2494 -114.185 4 6 295
1952260N18252 1952 68 EP MM NOT_NAMED 1952-09-17 21:00:00 TS 22.3548 -114.491 main 354 354 P________PP___ EP051952 22.3499 -114.492 HU 75 1 22.3499 -114.492 TC 75 22.3746 -114.483 4 6 297
1952260N18252 1952 68 EP MM NOT_NAMED 1952-09-18 00:00:00 TS 22.5000 -114.800 75 hurdat_epa main 368 368 O________OO___ hurdat_epa EP051952 22.5000 -114.800 HU 75 1 22.5000 -114.800 TC 75 22.5000 -114.800 4 7 293
1952260N18252 1952 68 EP MM NOT_NAMED 1952-09-18 03:00:00 TS 22.6050 -115.140 main 384 384 P________PP___ EP051952 22.5999 -115.135 HU 75 1 22.5999 -115.135 TC 75 22.6251 -115.162 4 7 288
1952260N18252 1952 68 EP MM NOT_NAMED 1952-09-18 06:00:00 TS 22.7100 -115.509 75 hurdat_epa main 409 409 O________OP___ hurdat_epa EP051952 22.7000 -115.500 HU 75 1 22.7000 -115.500 TC 75 22.7501 -115.543 4 8 289
1952260N18252 1952 68 EP MM NOT_NAMED 1952-09-18 09:00:00 TS 22.8551 -115.911 main 431 431 P________PP___ EP051952 22.8501 -115.907 HU 75 1 22.8501 -115.907 TC 75 22.8751 -115.927 4 8 292
1952260N18252 1952 68 EP MM NOT_NAMED 1952-09-18 12:00:00 TS 23.0000 -116.300 75 hurdat_epa main 462 462 O________OO___ hurdat_epa EP051952 23.0000 -116.300 HU 75 1 23.0000 -116.300 TC 75 23.0000 -116.300 4 7 291
1952260N18252 1952 68 EP MM NOT_NAMED 1952-09-18 15:00:00 TS 23.1048 -116.614 main 485 485 P________PP___ EP051952 23.0998 -116.608 HU 75 1 23.0998 -116.608 TC 75 23.1246 -116.640 4 6 290
1952260N18252 1952 68 EP MM NOT_NAMED 1952-09-18 18:00:00 TS 23.2099 -116.913 75 hurdat_epa main 509 508 O________OP___ hurdat_epa EP051952 23.2000 -116.900 HU 75 1 23.2000 -116.900 TC 75 23.2495 -116.965 4 6 293
1952260N18252 1952 68 EP MM NOT_NAMED 1952-09-18 21:00:00 TS 23.3489 -117.251 main 524 514 P________PP___ EP051952 23.3425 -117.243 HU 75 1 23.3425 -117.243 TC 75 23.3747 -117.283 4 7 295
1952260N18252 1952 68 EP MM NOT_NAMED 1952-09-19 00:00:00 TS 23.5000 -117.600 75 hurdat_epa main 523 520 O________OO___ hurdat_epa EP051952 23.5000 -117.600 HU 75 1 23.5000 -117.600 TC 75 23.5000 -117.600 4 7 295
1952260N18252 1952 68 EP MM NOT_NAMED 1952-09-19 03:00:00 TS 23.6485 -117.954 main 540 532 P________PP___ EP051952 23.6575 -117.958 HU 75 1 23.6575 -117.958 TC 75 23.6128 -117.937 4 7 294
1952260N18252 1952 68 EP MM NOT_NAMED 1952-09-19 06:00:00 TS 23.7855 -118.295 75 hurdat_epa main 545 545 O________OP___ hurdat_epa EP051952 23.8000 -118.300 HU 75 1 23.8000 -118.300 TC 75 23.7275 -118.273 4 6 291
1952260N18252 1952 68 EP MM NOT_NAMED 1952-09-19 09:00:00 TS 23.8846 -118.612 main 556 556 P________PP___ EP051952 23.8924 -118.615 HU 75 1 23.8924 -118.615 TC 75 23.8534 -118.597 4 6 291
1952260N18252 1952 68 EP MM NOT_NAMED 1952-09-19 12:00:00 TS 24.0000 -118.900 75 hurdat_epa main 568 566 O________OO___ hurdat_epa EP051952 24.0000 -118.900 HU 75 1 24.0000 -118.900 TC 75 24.0000 -118.900 4 6 301
1952260N18252 1952 68 EP MM NOT_NAMED 1952-09-19 15:00:00 TS 24.1844 -119.160 main 573 565 P________PP___ EP051952 24.1849 -119.158 HU 75 1 24.1849 -119.158 TC 75 24.1822 -119.172 4 6 311
1952260N18252 1952 68 EP MM NOT_NAMED 1952-09-19 18:00:00 TS 24.3969 -119.405 75 hurdat_epa main 573 573 O________OP___ hurdat_epa EP051952 24.4000 -119.400 HU 75 1 24.4000 -119.400 TC 75 24.3846 -119.423 4 6 313
1952260N18252 1952 68 EP MM NOT_NAMED 1952-09-19 21:00:00 TS 24.5989 -119.653 main 582 575 P________PP___ EP051952 24.6000 -119.650 HU 75 1 24.6000 -119.650 TC 75 24.5947 -119.662 4 6 312
1952260N18252 1952 68 EP MM NOT_NAMED 1952-09-20 00:00:00 TS 24.8000 -119.900 75 hurdat_epa main 585 585 O________OO___ hurdat_epa EP051952 24.8000 -119.900 HU 75 1 24.8000 -119.900 TC 75 24.8000 -119.900 4 6 312
1952260N18252 1952 68 EP MM NOT_NAMED 1952-09-20 03:00:00 TS 25.0041 -120.149 main 590 590 P________PP___ EP051952 25.0075 -120.150 HU 75 1 25.0075 -120.150 TC 75 24.9906 -120.143 4 6 311
1952260N18252 1952 68 EP MM NOT_NAMED 1952-09-20 06:00:00 TS 25.1949 -120.399 75 hurdat_epa main 605 605 O________OP___ hurdat_epa EP051952 25.2000 -120.400 HU 75 1 25.2000 -120.400 TC 75 25.1680 -120.392 4 6 307
1952260N18252 1952 68 EP MM NOT_NAMED 1952-09-20 09:00:00 TS 25.3552 -120.663 main 621 621 P________PP___ EP051952 25.3575 -120.665 HU 75 1 25.3575 -120.665 TC 75 25.3363 -120.645 4 5 304
1952260N18252 1952 68 EP MM NOT_NAMED 1952-09-20 12:00:00 TS 25.5000 -120.900 75 hurdat_epa main 635 635 O________OO___ hurdat_epa EP051952 25.5000 -120.900 HU 75 1 25.5000 -120.900 TC 75 25.5000 -120.900 4 5 310
1952260N18252 1952 68 EP MM NOT_NAMED 1952-09-20 15:00:00 TS 25.6574 -121.065 main 645 645 P________P____ EP051952 25.6574 -121.065 HU 60 0 25.6574 -121.065 TC 60 4 4 318
1952260N18252 1952 68 EP MM NOT_NAMED 1952-09-20 18:00:00 TS 25.8000 -121.200 45 hurdat_epa main 650 650 O________O____ hurdat_epa EP051952 25.8000 -121.200 TS 45 0 25.8000 -121.200 TC 45 4 3 313
1952260N18252 1952 68 EP MM NOT_NAMED 1952-09-20 21:00:00 TS 25.8622 -121.306 main 656 656 P________P____ EP051952 25.8622 -121.306 TS 45 0 25.8622 -121.306 TC 45 4 3 306
1952260N18252 1952 68 EP MM NOT_NAMED 1952-09-21 00:00:00 TS 26.0000 -121.500 45 hurdat_epa main 671 671 O________O____ hurdat_epa EP051952 26.0000 -121.500 TS 45 0 26.0000 -121.500 TC 45 7 313
1952260N18252 1952 68 EP MM NOT_NAMED 1952-09-21 03:00:00 TS 26.3626 -121.897 main 697 697 P________P____ EP051952 26.3626 -121.897 TS 45 0 26.3626 -121.897 TC 45 11 315
1952260N18252 1952 68 EP MM NOT_NAMED 1952-09-21 06:00:00 TS 26.8000 -122.400 45 hurdat_epa main 731 731 O________O____ hurdat_epa EP051952 26.8000 -122.400 TS 45 0 26.8000 -122.400 TC 45 12 313
1952260N18252 1952 68 EP MM NOT_NAMED 1952-09-21 09:00:00 TS 27.1950 -122.907 main 755 755 P________P____ EP051952 27.1950 -122.907 TS 45 0 27.1950 -122.907 TC 45 11 308
1952260N18252 1952 68 EP MM NOT_NAMED 1952-09-21 12:00:00 TS 27.5000 -123.400 45 hurdat_epa main 787 787 O________O____ hurdat_epa EP051952 27.5000 -123.400 TS 45 0 27.5000 -123.400 TC 45 9 299
1952260N18252 1952 68 EP MM NOT_NAMED 1952-09-21 15:00:00 TS 27.6447 -123.816 main 817 814 P________P____ EP051952 27.6447 -123.816 TS 45 0 27.6447 -123.816 TC 45 7 286
1952260N18252 1952 68 EP MM NOT_NAMED 1952-09-21 18:00:00 TS 27.7000 -124.200 45 hurdat_epa main 826 826 O________O____ hurdat_epa EP051952 27.7000 -124.200 TS 45 0 27.7000 -124.200 TC 45 7 279
1952260N18252 1952 68 EP MM NOT_NAMED 1952-09-21 21:00:00 TS 27.7574 -124.600 main 832 832 P________P____ EP051952 27.7574 -124.600 TS 45 0 27.7574 -124.600 TC 45 7 278
1952260N18252 1952 68 EP MM NOT_NAMED 1952-09-22 00:00:00 TS 27.8000 -125.000 45 hurdat_epa main 851 851 O________O____ hurdat_epa EP051952 27.8000 -125.000 TS 45 0 27.8000 -125.000 TC 45 7 277
1952260N18252 1952 68 EP MM NOT_NAMED 1952-09-22 03:00:00 TS 27.8499 -125.408 main 870 861 P________P____ EP051952 27.8499 -125.408 TS 45 0 27.8499 -125.408 TC 45 7 278
1952260N18252 1952 68 EP MM NOT_NAMED 1952-09-22 06:00:00 TS 27.9000 -125.800 45 hurdat_epa main 882 882 O________O____ hurdat_epa EP051952 27.9000 -125.800 TS 45 0 27.9000 -125.800 TC 45 7 279
1952260N18252 1952 68 EP MM NOT_NAMED 1952-09-22 09:00:00 TS 27.9501 -126.160 main 895 895 P________P____ EP051952 27.9501 -126.160 TS 45 0 27.9501 -126.160 TC 45 6 279
1952260N18252 1952 68 EP MM NOT_NAMED 1952-09-22 12:00:00 TS 28.0000 -126.500 45 hurdat_epa main 913 O________O____ hurdat_epa EP051952 28.0000 -126.500 TS 45 0 28.0000 -126.500 TC 45 6 279

About IBTrACS Database

This database is a web-friendly format of International Best Track Archive for Climate Stewardship (IBTrACS), a global best track data archive curated by NOAA dating back to 1842.

Updated: 2021-12-03